sensor_id;sensor_type;location;lat;lon;timestamp;pressure;altitude;pressure_sealevel;temperature
75822;BMP180;64454;51.984;9.838;2022-12-29T00:01:37;98992.00;;;9.70
75822;BMP180;64454;51.984;9.838;2022-12-29T00:04:05;98994.00;;;9.70
75822;BMP180;64454;51.984;9.838;2022-12-29T00:06:33;99003.00;;;9.80
75822;BMP180;64454;51.984;9.838;2022-12-29T00:08:59;98980.00;;;9.90
75822;BMP180;64454;51.984;9.838;2022-12-29T00:11:28;98990.00;;;9.80
75822;BMP180;64454;51.984;9.838;2022-12-29T00:13:55;98981.00;;;9.80
75822;BMP180;64454;51.984;9.838;2022-12-29T00:16:42;98969.00;;;9.90
75822;BMP180;64454;51.984;9.838;2022-12-29T00:19:11;98981.00;;;9.80
75822;BMP180;64454;51.984;9.838;2022-12-29T00:21:52;98988.00;;;9.90
75822;BMP180;64454;51.984;9.838;2022-12-29T00:24:36;98975.00;;;10.00
75822;BMP180;64454;51.984;9.838;2022-12-29T00:27:22;98980.00;;;9.90
75822;BMP180;64454;51.984;9.838;2022-12-29T00:30:10;98971.00;;;10.10
75822;BMP180;64454;51.984;9.838;2022-12-29T00:32:55;98980.00;;;10.00
75822;BMP180;64454;51.984;9.838;2022-12-29T00:35:46;98991.00;;;9.80
75822;BMP180;64454;51.984;9.838;2022-12-29T00:38:14;98987.00;;;9.90
75822;BMP180;64454;51.984;9.838;2022-12-29T00:40:59;98977.00;;;9.90
75822;BMP180;64454;51.984;9.838;2022-12-29T00:43:45;98965.00;;;10.00
75822;BMP180;64454;51.984;9.838;2022-12-29T00:46:29;98985.00;;;9.80
75822;BMP180;64454;51.984;9.838;2022-12-29T00:48:56;98991.00;;;9.80
75822;BMP180;64454;51.984;9.838;2022-12-29T00:51:41;98984.00;;;9.80
75822;BMP180;64454;51.984;9.838;2022-12-29T00:54:09;98986.00;;;9.90
75822;BMP180;64454;51.984;9.838;2022-12-29T00:56:36;98966.00;;;9.80
75822;BMP180;64454;51.984;9.838;2022-12-29T00:59:09;98983.00;;;9.80
75822;BMP180;64454;51.984;9.838;2022-12-29T01:01:38;98971.00;;;9.90
75822;BMP180;64454;51.984;9.838;2022-12-29T01:04:06;98961.00;;;9.90
75822;BMP180;64454;51.984;9.838;2022-12-29T01:06:35;98964.00;;;9.90
75822;BMP180;64454;51.984;9.838;2022-12-29T01:09:03;98952.00;;;9.90
75822;BMP180;64454;51.984;9.838;2022-12-29T01:11:47;98961.00;;;9.80
75822;BMP180;64454;51.984;9.838;2022-12-29T01:14:17;98949.00;;;9.80
75822;BMP180;64454;51.984;9.838;2022-12-29T01:16:44;98960.00;;;9.80
75822;BMP180;64454;51.984;9.838;2022-12-29T01:19:12;98946.00;;;9.80
75822;BMP180;64454;51.984;9.838;2022-12-29T01:21:38;98932.00;;;9.80
75822;BMP180;64454;51.984;9.838;2022-12-29T01:24:06;98938.00;;;9.80
75822;BMP180;64454;51.984;9.838;2022-12-29T01:26:33;98951.00;;;9.70
75822;BMP180;64454;51.984;9.838;2022-12-29T01:29:00;98936.00;;;9.80
75822;BMP180;64454;51.984;9.838;2022-12-29T01:31:28;98934.00;;;9.80
75822;BMP180;64454;51.984;9.838;2022-12-29T01:33:55;98937.00;;;9.80
75822;BMP180;64454;51.984;9.838;2022-12-29T01:36:22;98918.00;;;9.80
75822;BMP180;64454;51.984;9.838;2022-12-29T01:38:50;98926.00;;;9.80
75822;BMP180;64454;51.984;9.838;2022-12-29T01:41:17;98915.00;;;9.90
75822;BMP180;64454;51.984;9.838;2022-12-29T01:43:47;98918.00;;;9.90
75822;BMP180;64454;51.984;9.838;2022-12-29T01:46:22;98924.00;;;10.00
75822;BMP180;64454;51.984;9.838;2022-12-29T01:48:57;98924.00;;;10.00
75822;BMP180;64454;51.984;9.838;2022-12-29T01:51:29;98899.00;;;10.10
75822;BMP180;64454;51.984;9.838;2022-12-29T01:53:59;98908.00;;;10.10
75822;BMP180;64454;51.984;9.838;2022-12-29T01:56:28;98904.00;;;10.10
75822;BMP180;64454;51.984;9.838;2022-12-29T01:59:01;98895.00;;;10.10
75822;BMP180;64454;51.984;9.838;2022-12-29T02:01:28;98880.00;;;10.20
75822;BMP180;64454;51.984;9.838;2022-12-29T02:03:57;98893.00;;;10.10
75822;BMP180;64454;51.984;9.838;2022-12-29T02:06:31;98887.00;;;10.20
75822;BMP180;64454;51.984;9.838;2022-12-29T02:08:59;98879.00;;;10.10
75822;BMP180;64454;51.984;9.838;2022-12-29T02:11:29;98887.00;;;10.00
75822;BMP180;64454;51.984;9.838;2022-12-29T02:13:56;98884.00;;;10.00
75822;BMP180;64454;51.984;9.838;2022-12-29T02:16:38;98877.00;;;10.10
75822;BMP180;64454;51.984;9.838;2022-12-29T02:22:27;98881.00;;;10.00
75822;BMP180;64454;51.984;9.838;2022-12-29T02:28:46;98870.00;;;10.00
75822;BMP180;64454;51.984;9.838;2022-12-29T02:31:27;98883.00;;;10.10
75822;BMP180;64454;51.984;9.838;2022-12-29T02:34:10;98891.00;;;10.20
75822;BMP180;64454;51.984;9.838;2022-12-29T02:36:53;98880.00;;;10.10
75822;BMP180;64454;51.984;9.838;2022-12-29T02:39:34;98872.00;;;10.30
75822;BMP180;64454;51.984;9.838;2022-12-29T02:42:14;98873.00;;;10.20
75822;BMP180;64454;51.984;9.838;2022-12-29T02:44:55;98872.00;;;10.10
75822;BMP180;64454;51.984;9.838;2022-12-29T02:47:35;98880.00;;;10.30
75822;BMP180;64454;51.984;9.838;2022-12-29T02:50:08;98870.00;;;10.30
75822;BMP180;64454;51.984;9.838;2022-12-29T02:52:47;98884.00;;;10.20
75822;BMP180;64454;51.984;9.838;2022-12-29T02:55:16;98870.00;;;10.20
75822;BMP180;64454;51.984;9.838;2022-12-29T02:57:42;98876.00;;;10.20
75822;BMP180;64454;51.984;9.838;2022-12-29T03:00:13;98866.00;;;10.30
75822;BMP180;64454;51.984;9.838;2022-12-29T03:03:10;98870.00;;;10.20
75822;BMP180;64454;51.984;9.838;2022-12-29T03:06:13;98860.00;;;10.30
75822;BMP180;64454;51.984;9.838;2022-12-29T03:08:48;98858.00;;;10.20
75822;BMP180;64454;51.984;9.838;2022-12-29T03:11:17;98849.00;;;10.10
75822;BMP180;64454;51.984;9.838;2022-12-29T03:14:09;98859.00;;;10.10
75822;BMP180;64454;51.984;9.838;2022-12-29T03:17:02;98856.00;;;10.10
75822;BMP180;64454;51.984;9.838;2022-12-29T03:19:36;98853.00;;;10.10
75822;BMP180;64454;51.984;9.838;2022-12-29T03:22:07;98846.00;;;10.20
75822;BMP180;64454;51.984;9.838;2022-12-29T03:24:57;98855.00;;;10.20
75822;BMP180;64454;51.984;9.838;2022-12-29T03:27:30;98842.00;;;10.20
75822;BMP180;64454;51.984;9.838;2022-12-29T03:30:01;98835.00;;;10.20
75822;BMP180;64454;51.984;9.838;2022-12-29T03:32:35;98827.00;;;10.20
75822;BMP180;64454;51.984;9.838;2022-12-29T03:35:06;98823.00;;;10.20
75822;BMP180;64454;51.984;9.838;2022-12-29T03:37:39;98832.00;;;10.20
75822;BMP180;64454;51.984;9.838;2022-12-29T03:40:08;98821.00;;;10.20
75822;BMP180;64454;51.984;9.838;2022-12-29T03:42:37;98828.00;;;10.20
75822;BMP180;64454;51.984;9.838;2022-12-29T03:45:08;98826.00;;;10.20
75822;BMP180;64454;51.984;9.838;2022-12-29T03:47:35;98809.00;;;10.20
75822;BMP180;64454;51.984;9.838;2022-12-29T03:50:05;98815.00;;;10.30
75822;BMP180;64454;51.984;9.838;2022-12-29T03:52:34;98824.00;;;10.40
75822;BMP180;64454;51.984;9.838;2022-12-29T03:55:00;98806.00;;;10.40
75822;BMP180;64454;51.984;9.838;2022-12-29T03:57:27;98813.00;;;10.30
75822;BMP180;64454;51.984;9.838;2022-12-29T03:59:54;98810.00;;;10.40
75822;BMP180;64454;51.984;9.838;2022-12-29T04:02:21;98812.00;;;10.40
75822;BMP180;64454;51.984;9.838;2022-12-29T04:04:48;98813.00;;;10.40
75822;BMP180;64454;51.984;9.838;2022-12-29T04:07:16;98817.00;;;10.40
75822;BMP180;64454;51.984;9.838;2022-12-29T04:09:43;98809.00;;;10.50
75822;BMP180;64454;51.984;9.838;2022-12-29T04:12:09;98812.00;;;10.50
75822;BMP180;64454;51.984;9.838;2022-12-29T04:14:36;98803.00;;;10.60
75822;BMP180;64454;51.984;9.838;2022-12-29T04:17:03;98805.00;;;10.70
75822;BMP180;64454;51.984;9.838;2022-12-29T04:19:30;98815.00;;;10.60
75822;BMP180;64454;51.984;9.838;2022-12-29T04:21:56;98814.00;;;10.70
75822;BMP180;64454;51.984;9.838;2022-12-29T04:24:24;98811.00;;;10.70
75822;BMP180;64454;51.984;9.838;2022-12-29T04:26:51;98819.00;;;10.80
75822;BMP180;64454;51.984;9.838;2022-12-29T04:29:18;98824.00;;;10.80
75822;BMP180;64454;51.984;9.838;2022-12-29T04:31:45;98833.00;;;10.80
75822;BMP180;64454;51.984;9.838;2022-12-29T04:34:12;98812.00;;;10.90
75822;BMP180;64454;51.984;9.838;2022-12-29T04:36:39;98817.00;;;10.80
75822;BMP180;64454;51.984;9.838;2022-12-29T04:39:06;98812.00;;;10.90
75822;BMP180;64454;51.984;9.838;2022-12-29T04:41:34;98805.00;;;10.80
75822;BMP180;64454;51.984;9.838;2022-12-29T04:44:01;98819.00;;;10.90
75822;BMP180;64454;51.984;9.838;2022-12-29T04:46:28;98804.00;;;10.90
75822;BMP180;64454;51.984;9.838;2022-12-29T04:48:56;98814.00;;;10.80
75822;BMP180;64454;51.984;9.838;2022-12-29T04:51:22;98792.00;;;10.90
75822;BMP180;64454;51.984;9.838;2022-12-29T04:53:49;98793.00;;;10.90
75822;BMP180;64454;51.984;9.838;2022-12-29T04:56:16;98787.00;;;10.90
75822;BMP180;64454;51.984;9.838;2022-12-29T04:58:44;98788.00;;;11.00
75822;BMP180;64454;51.984;9.838;2022-12-29T05:01:11;98788.00;;;11.00
75822;BMP180;64454;51.984;9.838;2022-12-29T05:03:37;98787.00;;;11.00
75822;BMP180;64454;51.984;9.838;2022-12-29T05:06:05;98811.00;;;11.00
75822;BMP180;64454;51.984;9.838;2022-12-29T05:08:32;98803.00;;;10.90
75822;BMP180;64454;51.984;9.838;2022-12-29T05:10:58;98803.00;;;10.90
75822;BMP180;64454;51.984;9.838;2022-12-29T05:13:25;98792.00;;;10.80
75822;BMP180;64454;51.984;9.838;2022-12-29T05:15:54;98781.00;;;10.80
75822;BMP180;64454;51.984;9.838;2022-12-29T05:18:20;98788.00;;;10.80
75822;BMP180;64454;51.984;9.838;2022-12-29T05:20:47;98786.00;;;10.80
75822;BMP180;64454;51.984;9.838;2022-12-29T05:23:14;98792.00;;;10.90
75822;BMP180;64454;51.984;9.838;2022-12-29T05:25:43;98794.00;;;10.80
75822;BMP180;64454;51.984;9.838;2022-12-29T05:28:11;98787.00;;;10.80
75822;BMP180;64454;51.984;9.838;2022-12-29T05:30:37;98785.00;;;10.80
75822;BMP180;64454;51.984;9.838;2022-12-29T05:33:06;98791.00;;;10.80
75822;BMP180;64454;51.984;9.838;2022-12-29T05:35:33;98783.00;;;10.90
75822;BMP180;64454;51.984;9.838;2022-12-29T05:38:00;98793.00;;;11.00
75822;BMP180;64454;51.984;9.838;2022-12-29T05:40:26;98794.00;;;10.80
75822;BMP180;64454;51.984;9.838;2022-12-29T05:42:53;98801.00;;;10.80
75822;BMP180;64454;51.984;9.838;2022-12-29T05:45:20;98781.00;;;10.80
75822;BMP180;64454;51.984;9.838;2022-12-29T05:47:47;98778.00;;;10.80
75822;BMP180;64454;51.984;9.838;2022-12-29T05:50:15;98793.00;;;10.90
75822;BMP180;64454;51.984;9.838;2022-12-29T05:52:42;98794.00;;;10.90
75822;BMP180;64454;51.984;9.838;2022-12-29T05:55:10;98792.00;;;10.90
75822;BMP180;64454;51.984;9.838;2022-12-29T05:57:37;98803.00;;;10.90
75822;BMP180;64454;51.984;9.838;2022-12-29T06:00:06;98779.00;;;11.00
75822;BMP180;64454;51.984;9.838;2022-12-29T06:02:33;98788.00;;;11.10
75822;BMP180;64454;51.984;9.838;2022-12-29T06:05:00;98810.00;;;11.00
75822;BMP180;64454;51.984;9.838;2022-12-29T06:07:28;98784.00;;;11.00
75822;BMP180;64454;51.984;9.838;2022-12-29T06:09:55;98768.00;;;11.00
75822;BMP180;64454;51.984;9.838;2022-12-29T06:12:22;98791.00;;;10.90
75822;BMP180;64454;51.984;9.838;2022-12-29T06:14:48;98776.00;;;10.90
75822;BMP180;64454;51.984;9.838;2022-12-29T06:17:15;98778.00;;;11.10
75822;BMP180;64454;51.984;9.838;2022-12-29T06:19:42;98776.00;;;11.00
75822;BMP180;64454;51.984;9.838;2022-12-29T06:22:09;98754.00;;;11.10
75822;BMP180;64454;51.984;9.838;2022-12-29T06:24:39;98757.00;;;11.00
75822;BMP180;64454;51.984;9.838;2022-12-29T06:27:06;98763.00;;;11.10
75822;BMP180;64454;51.984;9.838;2022-12-29T06:29:32;98780.00;;;11.00
75822;BMP180;64454;51.984;9.838;2022-12-29T06:32:01;98778.00;;;11.00
75822;BMP180;64454;51.984;9.838;2022-12-29T06:34:28;98783.00;;;11.00
75822;BMP180;64454;51.984;9.838;2022-12-29T06:36:55;98801.00;;;11.00
75822;BMP180;64454;51.984;9.838;2022-12-29T06:39:22;98771.00;;;11.00
75822;BMP180;64454;51.984;9.838;2022-12-29T06:41:53;98767.00;;;11.00
75822;BMP180;64454;51.984;9.838;2022-12-29T06:44:20;98769.00;;;11.00
75822;BMP180;64454;51.984;9.838;2022-12-29T06:46:48;98767.00;;;11.10
75822;BMP180;64454;51.984;9.838;2022-12-29T06:49:14;98779.00;;;11.00
75822;BMP180;64454;51.984;9.838;2022-12-29T06:51:41;98774.00;;;11.10
75822;BMP180;64454;51.984;9.838;2022-12-29T06:54:08;98785.00;;;11.10
75822;BMP180;64454;51.984;9.838;2022-12-29T06:56:35;98776.00;;;11.20
75822;BMP180;64454;51.984;9.838;2022-12-29T06:59:03;98779.00;;;11.20
75822;BMP180;64454;51.984;9.838;2022-12-29T07:01:30;98779.00;;;11.20
75822;BMP180;64454;51.984;9.838;2022-12-29T07:03:57;98791.00;;;11.20
75822;BMP180;64454;51.984;9.838;2022-12-29T07:06:24;98798.00;;;11.20
75822;BMP180;64454;51.984;9.838;2022-12-29T07:08:51;98813.00;;;11.30
75822;BMP180;64454;51.984;9.838;2022-12-29T07:11:20;98777.00;;;11.20
75822;BMP180;64454;51.984;9.838;2022-12-29T07:13:47;98778.00;;;11.20
75822;BMP180;64454;51.984;9.838;2022-12-29T07:16:15;98769.00;;;11.30
75822;BMP180;64454;51.984;9.838;2022-12-29T07:18:42;98783.00;;;11.30
75822;BMP180;64454;51.984;9.838;2022-12-29T07:21:09;98768.00;;;11.30
75822;BMP180;64454;51.984;9.838;2022-12-29T07:23:37;98786.00;;;11.40
75822;BMP180;64454;51.984;9.838;2022-12-29T07:26:06;98784.00;;;11.40
75822;BMP180;64454;51.984;9.838;2022-12-29T07:28:34;98792.00;;;11.40
75822;BMP180;64454;51.984;9.838;2022-12-29T07:31:03;98781.00;;;11.40
75822;BMP180;64454;51.984;9.838;2022-12-29T07:33:32;98798.00;;;11.40
75822;BMP180;64454;51.984;9.838;2022-12-29T07:35:59;98801.00;;;11.40
75822;BMP180;64454;51.984;9.838;2022-12-29T07:38:26;98794.00;;;11.40
75822;BMP180;64454;51.984;9.838;2022-12-29T07:40:57;98813.00;;;11.30
75822;BMP180;64454;51.984;9.838;2022-12-29T07:43:24;98788.00;;;11.40
75822;BMP180;64454;51.984;9.838;2022-12-29T07:45:51;98800.00;;;11.40
75822;BMP180;64454;51.984;9.838;2022-12-29T07:48:18;98807.00;;;11.40
75822;BMP180;64454;51.984;9.838;2022-12-29T07:50:46;98813.00;;;11.40
75822;BMP180;64454;51.984;9.838;2022-12-29T07:53:13;98809.00;;;11.40
75822;BMP180;64454;51.984;9.838;2022-12-29T07:55:41;98806.00;;;11.50
75822;BMP180;64454;51.984;9.838;2022-12-29T07:58:08;98805.00;;;11.20
75822;BMP180;64454;51.984;9.838;2022-12-29T08:00:34;98803.00;;;11.30
75822;BMP180;64454;51.984;9.838;2022-12-29T08:03:01;98810.00;;;11.30
75822;BMP180;64454;51.984;9.838;2022-12-29T08:05:30;98814.00;;;11.30
75822;BMP180;64454;51.984;9.838;2022-12-29T08:07:58;98815.00;;;11.30
75822;BMP180;64454;51.984;9.838;2022-12-29T08:10:25;98818.00;;;11.30
75822;BMP180;64454;51.984;9.838;2022-12-29T08:12:52;98818.00;;;11.30
75822;BMP180;64454;51.984;9.838;2022-12-29T08:15:19;98818.00;;;11.30
75822;BMP180;64454;51.984;9.838;2022-12-29T08:17:46;98818.00;;;11.30
75822;BMP180;64454;51.984;9.838;2022-12-29T08:20:12;98826.00;;;11.40
75822;BMP180;64454;51.984;9.838;2022-12-29T08:22:40;98810.00;;;11.30
75822;BMP180;64454;51.984;9.838;2022-12-29T08:25:08;98822.00;;;11.30
75822;BMP180;64454;51.984;9.838;2022-12-29T08:27:35;98824.00;;;11.30
75822;BMP180;64454;51.984;9.838;2022-12-29T08:30:04;98840.00;;;11.30
75822;BMP180;64454;51.984;9.838;2022-12-29T08:32:30;98842.00;;;11.30
75822;BMP180;64454;51.984;9.838;2022-12-29T08:34:57;98847.00;;;11.20
75822;BMP180;64454;51.984;9.838;2022-12-29T08:37:24;98837.00;;;11.20
75822;BMP180;64454;51.984;9.838;2022-12-29T08:39:51;98846.00;;;11.10
75822;BMP180;64454;51.984;9.838;2022-12-29T08:42:19;98848.00;;;11.00
75822;BMP180;64454;51.984;9.838;2022-12-29T08:44:46;98841.00;;;11.20
75822;BMP180;64454;51.984;9.838;2022-12-29T08:47:12;98867.00;;;11.10
75822;BMP180;64454;51.984;9.838;2022-12-29T08:49:39;98861.00;;;11.10
75822;BMP180;64454;51.984;9.838;2022-12-29T08:52:07;98876.00;;;11.10
75822;BMP180;64454;51.984;9.838;2022-12-29T08:54:34;98871.00;;;11.20
75822;BMP180;64454;51.984;9.838;2022-12-29T08:57:01;98871.00;;;11.20
75822;BMP180;64454;51.984;9.838;2022-12-29T08:59:29;98873.00;;;11.20
75822;BMP180;64454;51.984;9.838;2022-12-29T09:01:56;98877.00;;;11.20
75822;BMP180;64454;51.984;9.838;2022-12-29T09:04:22;98862.00;;;11.00
75822;BMP180;64454;51.984;9.838;2022-12-29T09:06:50;98874.00;;;11.20
75822;BMP180;64454;51.984;9.838;2022-12-29T09:09:17;98879.00;;;11.20
75822;BMP180;64454;51.984;9.838;2022-12-29T09:11:44;98868.00;;;11.40
75822;BMP180;64454;51.984;9.838;2022-12-29T09:14:12;98885.00;;;11.30
75822;BMP180;64454;51.984;9.838;2022-12-29T09:16:41;98894.00;;;11.50
75822;BMP180;64454;51.984;9.838;2022-12-29T09:19:25;98891.00;;;11.40
75822;BMP180;64454;51.984;9.838;2022-12-29T09:21:52;98910.00;;;11.40
75822;BMP180;64454;51.984;9.838;2022-12-29T09:24:19;98895.00;;;11.50
75822;BMP180;64454;51.984;9.838;2022-12-29T09:26:45;98886.00;;;11.50
75822;BMP180;64454;51.984;9.838;2022-12-29T09:29:12;98874.00;;;11.50
75822;BMP180;64454;51.984;9.838;2022-12-29T09:31:40;98877.00;;;11.40
75822;BMP180;64454;51.984;9.838;2022-12-29T09:34:07;98879.00;;;11.30
75822;BMP180;64454;51.984;9.838;2022-12-29T09:36:34;98885.00;;;11.30
75822;BMP180;64454;51.984;9.838;2022-12-29T09:39:01;98878.00;;;11.30
75822;BMP180;64454;51.984;9.838;2022-12-29T09:41:36;98878.00;;;11.30
75822;BMP180;64454;51.984;9.838;2022-12-29T09:44:14;98889.00;;;11.30
75822;BMP180;64454;51.984;9.838;2022-12-29T09:46:47;98890.00;;;11.40
75822;BMP180;64454;51.984;9.838;2022-12-29T09:49:24;98892.00;;;11.40
75822;BMP180;64454;51.984;9.838;2022-12-29T09:51:55;98906.00;;;11.40
75822;BMP180;64454;51.984;9.838;2022-12-29T09:54:41;98901.00;;;11.20
75822;BMP180;64454;51.984;9.838;2022-12-29T09:57:18;98876.00;;;11.60
75822;BMP180;64454;51.984;9.838;2022-12-29T09:59:51;98850.00;;;13.10
75822;BMP180;64454;51.984;9.838;2022-12-29T10:02:34;98841.00;;;15.50
75822;BMP180;64454;51.984;9.838;2022-12-29T10:05:03;98863.00;;;15.30
75822;BMP180;64454;51.984;9.838;2022-12-29T10:07:41;98840.00;;;15.90
75822;BMP180;64454;51.984;9.838;2022-12-29T10:10:24;98895.00;;;15.50
75822;BMP180;64454;51.984;9.838;2022-12-29T10:13:17;98878.00;;;15.50
75822;BMP180;64454;51.984;9.838;2022-12-29T10:15:58;98885.00;;;15.90
75822;BMP180;64454;51.984;9.838;2022-12-29T10:19:01;98855.00;;;15.80
75822;BMP180;64454;51.984;9.838;2022-12-29T10:21:50;98875.00;;;14.70
75822;BMP180;64454;51.984;9.838;2022-12-29T10:24:22;98856.00;;;14.30
75822;BMP180;64454;51.984;9.838;2022-12-29T10:26:51;98895.00;;;14.50
75822;BMP180;64454;51.984;9.838;2022-12-29T10:29:23;98869.00;;;13.60
75822;BMP180;64454;51.984;9.838;2022-12-29T10:31:58;98880.00;;;15.00
75822;BMP180;64454;51.984;9.838;2022-12-29T10:34:35;98880.00;;;14.80
75822;BMP180;64454;51.984;9.838;2022-12-29T10:37:09;98875.00;;;13.70
75822;BMP180;64454;51.984;9.838;2022-12-29T10:39:46;98896.00;;;13.50
75822;BMP180;64454;51.984;9.838;2022-12-29T10:42:25;98878.00;;;12.90
75822;BMP180;64454;51.984;9.838;2022-12-29T10:44:54;98888.00;;;12.90
75822;BMP180;64454;51.984;9.838;2022-12-29T10:47:26;98842.00;;;12.60
75822;BMP180;64454;51.984;9.838;2022-12-29T10:49:57;98872.00;;;14.10
75822;BMP180;64454;51.984;9.838;2022-12-29T10:52:27;98841.00;;;14.60
75822;BMP180;64454;51.984;9.838;2022-12-29T10:54:59;98854.00;;;15.10
75822;BMP180;64454;51.984;9.838;2022-12-29T10:57:33;98883.00;;;14.40
75822;BMP180;64454;51.984;9.838;2022-12-29T11:00:01;98883.00;;;13.80
75822;BMP180;64454;51.984;9.838;2022-12-29T11:02:58;98891.00;;;13.10
75822;BMP180;64454;51.984;9.838;2022-12-29T11:05:35;98908.00;;;12.50
75822;BMP180;64454;51.984;9.838;2022-12-29T11:08:11;98898.00;;;12.40
75822;BMP180;64454;51.984;9.838;2022-12-29T11:10:41;98888.00;;;12.30
75822;BMP180;64454;51.984;9.838;2022-12-29T11:13:14;98886.00;;;11.90
75822;BMP180;64454;51.984;9.838;2022-12-29T11:15:44;98891.00;;;12.00
75822;BMP180;64454;51.984;9.838;2022-12-29T11:18:22;98891.00;;;12.10
75822;BMP180;64454;51.984;9.838;2022-12-29T11:20:54;98883.00;;;12.20
75822;BMP180;64454;51.984;9.838;2022-12-29T11:23:30;98892.00;;;12.20
75822;BMP180;64454;51.984;9.838;2022-12-29T11:26:17;98894.00;;;11.90
75822;BMP180;64454;51.984;9.838;2022-12-29T11:28:47;98901.00;;;11.90
75822;BMP180;64454;51.984;9.838;2022-12-29T11:31:21;98922.00;;;11.90
75822;BMP180;64454;51.984;9.838;2022-12-29T11:33:48;98930.00;;;11.70
75822;BMP180;64454;51.984;9.838;2022-12-29T11:36:20;98947.00;;;11.20
75822;BMP180;64454;51.984;9.838;2022-12-29T11:38:50;98961.00;;;10.90
75822;BMP180;64454;51.984;9.838;2022-12-29T11:41:24;98988.00;;;10.80
75822;BMP180;64454;51.984;9.838;2022-12-29T11:43:53;99000.00;;;10.60
75822;BMP180;64454;51.984;9.838;2022-12-29T11:46:28;98956.00;;;10.50
75822;BMP180;64454;51.984;9.838;2022-12-29T11:48:57;98942.00;;;10.50
75822;BMP180;64454;51.984;9.838;2022-12-29T11:51:31;98950.00;;;10.70
75822;BMP180;64454;51.984;9.838;2022-12-29T11:54:02;98949.00;;;10.80
75822;BMP180;64454;51.984;9.838;2022-12-29T11:56:36;98946.00;;;11.50
75822;BMP180;64454;51.984;9.838;2022-12-29T11:59:42;98933.00;;;12.10
75822;BMP180;64454;51.984;9.838;2022-12-29T12:02:44;98945.00;;;12.60
75822;BMP180;64454;51.984;9.838;2022-12-29T12:05:40;98935.00;;;13.60
75822;BMP180;64454;51.984;9.838;2022-12-29T12:08:18;98942.00;;;12.60
75822;BMP180;64454;51.984;9.838;2022-12-29T12:10:52;98951.00;;;12.50
75822;BMP180;64454;51.984;9.838;2022-12-29T12:13:28;98956.00;;;11.80
75822;BMP180;64454;51.984;9.838;2022-12-29T12:16:03;98948.00;;;11.70
75822;BMP180;64454;51.984;9.838;2022-12-29T12:18:42;98944.00;;;11.70
75822;BMP180;64454;51.984;9.838;2022-12-29T12:21:20;98925.00;;;11.30
75822;BMP180;64454;51.984;9.838;2022-12-29T12:24:21;98940.00;;;11.10
75822;BMP180;64454;51.984;9.838;2022-12-29T12:27:00;98934.00;;;11.10
75822;BMP180;64454;51.984;9.838;2022-12-29T12:29:41;98938.00;;;11.20
75822;BMP180;64454;51.984;9.838;2022-12-29T12:32:17;98929.00;;;11.20
75822;BMP180;64454;51.984;9.838;2022-12-29T12:34:48;98936.00;;;11.20
75822;BMP180;64454;51.984;9.838;2022-12-29T12:37:41;98934.00;;;11.20
75822;BMP180;64454;51.984;9.838;2022-12-29T12:40:45;98934.00;;;11.10
75822;BMP180;64454;51.984;9.838;2022-12-29T12:43:35;98936.00;;;11.30
75822;BMP180;64454;51.984;9.838;2022-12-29T12:46:41;98927.00;;;11.30
75822;BMP180;64454;51.984;9.838;2022-12-29T12:52:26;98953.00;;;11.30
75822;BMP180;64454;51.984;9.838;2022-12-29T12:55:30;98948.00;;;11.40
75822;BMP180;64454;51.984;9.838;2022-12-29T12:58:14;98946.00;;;11.50
75822;BMP180;64454;51.984;9.838;2022-12-29T13:00:59;98950.00;;;11.50
75822;BMP180;64454;51.984;9.838;2022-12-29T13:03:47;98955.00;;;11.60
75822;BMP180;64454;51.984;9.838;2022-12-29T13:06:29;98961.00;;;11.60
75822;BMP180;64454;51.984;9.838;2022-12-29T13:09:24;98956.00;;;11.50
75822;BMP180;64454;51.984;9.838;2022-12-29T13:12:11;98947.00;;;11.50
75822;BMP180;64454;51.984;9.838;2022-12-29T13:15:01;98958.00;;;11.50
75822;BMP180;64454;51.984;9.838;2022-12-29T13:17:40;98968.00;;;11.70
75822;BMP180;64454;51.984;9.838;2022-12-29T13:20:27;98960.00;;;11.60
75822;BMP180;64454;51.984;9.838;2022-12-29T13:23:09;98950.00;;;11.60
75822;BMP180;64454;51.984;9.838;2022-12-29T13:25:48;98966.00;;;11.70
75822;BMP180;64454;51.984;9.838;2022-12-29T13:28:26;98972.00;;;11.60
75822;BMP180;64454;51.984;9.838;2022-12-29T13:31:04;98961.00;;;11.50
75822;BMP180;64454;51.984;9.838;2022-12-29T13:33:42;98978.00;;;11.60
75822;BMP180;64454;51.984;9.838;2022-12-29T13:36:24;98975.00;;;11.60
75822;BMP180;64454;51.984;9.838;2022-12-29T13:39:01;98975.00;;;11.70
75822;BMP180;64454;51.984;9.838;2022-12-29T13:41:34;98983.00;;;11.70
75822;BMP180;64454;51.984;9.838;2022-12-29T13:44:05;98981.00;;;11.50
75822;BMP180;64454;51.984;9.838;2022-12-29T13:46:39;98981.00;;;11.60
75822;BMP180;64454;51.984;9.838;2022-12-29T13:49:12;98994.00;;;11.60
75822;BMP180;64454;51.984;9.838;2022-12-29T13:51:43;98999.00;;;11.60
75822;BMP180;64454;51.984;9.838;2022-12-29T13:54:26;99013.00;;;11.50
75822;BMP180;64454;51.984;9.838;2022-12-29T13:57:03;99020.00;;;11.50
75822;BMP180;64454;51.984;9.838;2022-12-29T13:59:42;99013.00;;;11.60
75822;BMP180;64454;51.984;9.838;2022-12-29T14:02:26;99044.00;;;11.50
75822;BMP180;64454;51.984;9.838;2022-12-29T14:04:58;99039.00;;;11.30
75822;BMP180;64454;51.984;9.838;2022-12-29T14:07:26;99039.00;;;11.40
75822;BMP180;64454;51.984;9.838;2022-12-29T14:09:55;99044.00;;;11.40
75822;BMP180;64454;51.984;9.838;2022-12-29T14:12:31;99055.00;;;11.40
75822;BMP180;64454;51.984;9.838;2022-12-29T14:15:20;99044.00;;;11.50
75822;BMP180;64454;51.984;9.838;2022-12-29T14:18:09;99048.00;;;11.20
75822;BMP180;64454;51.984;9.838;2022-12-29T14:20:39;99054.00;;;11.40
75822;BMP180;64454;51.984;9.838;2022-12-29T14:23:27;99059.00;;;11.30
75822;BMP180;64454;51.984;9.838;2022-12-29T14:26:09;99060.00;;;11.40
75822;BMP180;64454;51.984;9.838;2022-12-29T14:28:38;99066.00;;;11.50
75822;BMP180;64454;51.984;9.838;2022-12-29T14:31:35;99069.00;;;11.40
75822;BMP180;64454;51.984;9.838;2022-12-29T14:34:30;99076.00;;;11.40
75822;BMP180;64454;51.984;9.838;2022-12-29T14:37:03;99074.00;;;11.50
75822;BMP180;64454;51.984;9.838;2022-12-29T14:39:38;99079.00;;;11.50
75822;BMP180;64454;51.984;9.838;2022-12-29T14:42:12;99110.00;;;11.30
75822;BMP180;64454;51.984;9.838;2022-12-29T14:44:49;99081.00;;;11.20
75822;BMP180;64454;51.984;9.838;2022-12-29T14:47:22;99098.00;;;11.30
75822;BMP180;64454;51.984;9.838;2022-12-29T14:49:53;99104.00;;;11.20
75822;BMP180;64454;51.984;9.838;2022-12-29T14:52:25;99120.00;;;11.20